Time;durP1;ratioP1;P1;durP2;ratioP2;P2;SDS_P1;SDS_P2;PMS_P1;PMS_P2;Temp;Humidity;BMP_temperature;BMP_pressure;BME280_temperature;BME280_humidity;BME280_pressure;Samples;Min_cycle;Max_cycle;Signal;HPM_P1;HPM_P2
2022/06/18 00:00:27;;;;;;;12.63;5.22;;;;;;;16.72;100.00;100970.88;5002026;28;20029;-76
2022/06/18 00:02:53;;;;;;;9.50;4.90;;;;;;;16.71;100.00;100971.06;4987002;28;20033;-75
2022/06/18 00:05:20;;;;;;;6.07;4.65;;;;;;;16.73;100.00;100959.03;4995208;28;20026;-76
2022/06/18 00:07:53;;;;;;;5.63;4.65;;;;;;;16.71;100.00;100958.41;4993903;28;20922;-75
2022/06/18 00:10:22;;;;;;;6.18;4.65;;;;;;;16.66;100.00;100952.78;5002019;28;20109;-76
2022/06/18 00:15:35;;;;;;;10.55;5.00;;;;;;;16.60;100.00;100962.50;4987216;28;20049;-76
2022/06/18 00:18:02;;;;;;;8.02;4.90;;;;;;;16.60;100.00;100950.84;4986638;28;20917;-75
2022/06/18 00:20:32;;;;;;;8.70;4.70;;;;;;;16.64;100.00;100949.44;4986722;28;20620;-75
2022/06/18 00:23:01;;;;;;;7.97;4.40;;;;;;;16.64;100.00;100933.25;5001826;28;20034;-75
2022/06/18 00:25:34;;;;;;;10.23;4.40;;;;;;;16.69;100.00;100930.81;4986845;28;20707;-76
2022/06/18 00:28:01;;;;;;;8.63;4.85;;;;;;;16.71;100.00;100923.34;4986470;28;20121;-75
2022/06/18 00:30:29;;;;;;;7.63;4.35;;;;;;;16.69;100.00;100914.63;4995720;28;20026;-76
2022/06/18 00:32:55;;;;;;;7.63;5.25;;;;;;;16.64;100.00;100909.00;4993865;28;20444;-76
2022/06/18 00:35:21;;;;;;;5.38;4.25;;;;;;;16.62;100.00;100902.97;4985469;28;20045;-75
2022/06/18 00:37:55;;;;;;;8.57;5.07;;;;;;;16.56;100.00;100907.31;4993127;28;20057;-76
2022/06/18 00:40:29;;;;;;;8.55;4.30;;;;;;;16.60;100.00;100905.88;4993510;28;20034;-76
2022/06/18 00:42:59;;;;;;;8.48;4.10;;;;;;;16.73;100.00;100883.56;4993559;28;20104;-76
2022/06/18 00:45:27;;;;;;;8.98;4.05;;;;;;;16.71;100.00;100865.91;4986693;28;20384;-76
2022/06/18 00:48:04;;;;;;;6.45;5.35;;;;;;;16.68;100.00;100864.44;5001335;28;20022;-76
2022/06/18 00:50:33;;;;;;;4.40;4.00;;;;;;;16.67;100.00;100860.94;4978523;28;20034;-75
2022/06/18 00:53:06;;;;;;;6.82;4.47;;;;;;;16.76;100.00;100858.88;4977355;28;20045;-76
2022/06/18 00:55:39;;;;;;;6.30;4.57;;;;;;;16.73;100.00;100853.91;4985637;28;20547;-76
2022/06/18 00:58:15;;;;;;;4.63;3.78;;;;;;;16.76;100.00;100853.50;4993184;28;20042;-76
2022/06/18 01:00:42;;;;;;;;;;;;;;;16.72;100.00;100860.34;5001696;28;20054;-76
2022/06/18 01:03:23;;;;;;;7.38;4.03;;;;;;;16.64;100.00;100857.78;4993241;28;19910;-75
2022/06/18 01:05:49;;;;;;;9.10;4.05;;;;;;;16.63;100.00;100870.44;5001554;28;20042;-76
2022/06/18 01:08:17;;;;;;;6.13;4.22;;;;;;;16.58;100.00;100856.75;4993239;28;20037;-76
2022/06/18 01:11:09;;;;;;;8.75;3.80;;;;;;;16.62;100.00;100870.63;4993087;28;20130;-75
2022/06/18 01:13:38;;;;;;;7.95;4.07;;;;;;;16.68;100.00;100869.84;4986523;28;20443;-76
2022/06/18 01:16:09;;;;;;;7.72;3.92;;;;;;;16.67;100.00;100858.25;4993101;28;20089;-75
2022/06/18 01:18:38;;;;;;;6.70;4.05;;;;;;;16.58;100.00;100839.75;4992902;28;20030;-75
2022/06/18 01:21:34;;;;;;;9.73;4.25;;;;;;;16.50;100.00;100874.94;5001188;28;20080;-76
2022/06/18 01:24:15;;;;;;;4.60;3.72;;;;;;;16.54;100.00;100873.50;4997506;28;20093;-76
2022/06/18 01:26:45;;;;;;;6.10;4.10;;;;;;;16.51;100.00;100857.75;4992371;28;20037;-76
2022/06/18 01:29:12;;;;;;;5.10;4.32;;;;;;;16.53;100.00;100851.13;5001498;28;20066;-76
2022/06/18 01:31:37;;;;;;;8.98;4.22;;;;;;;16.45;100.00;100857.47;4988828;28;20603;-76
2022/06/18 01:34:06;;;;;;;14.88;4.85;;;;;;;16.42;100.00;100870.53;4984265;28;20034;-76
2022/06/18 01:36:36;;;;;;;5.97;3.78;;;;;;;16.43;100.00;100858.72;4987034;28;20160;-76
2022/06/18 01:39:04;;;;;;;5.97;3.80;;;;;;;16.50;100.00;100847.97;4988411;28;20037;-76
2022/06/18 01:41:50;;;;;;;6.07;4.20;;;;;;;16.35;100.00;100864.28;4982782;28;20014;-76
2022/06/18 01:44:36;;;;;;;8.50;3.83;;;;;;;16.28;100.00;100879.56;5000633;28;20470;-76
2022/06/18 01:47:29;;;;;;;7.65;4.03;;;;;;;16.34;100.00;100878.75;4985616;28;20034;-75
2022/06/18 01:50:08;;;;;;;7.70;3.88;;;;;;;16.29;100.00;100902.75;4979084;28;20439;-76
2022/06/18 01:52:38;;;;;;;5.85;4.13;;;;;;;16.32;100.00;100897.84;4998510;28;20516;-76
2022/06/18 01:55:14;;;;;;;7.38;3.78;;;;;;;16.23;100.00;100925.94;5000136;28;20031;-76
2022/06/18 01:57:46;;;;;;;7.82;3.83;;;;;;;16.18;100.00;100923.00;4987343;28;20412;-76
2022/06/18 02:00:17;;;;;;;9.30;4.53;;;;;;;16.34;100.00;100855.38;4985078;28;20038;-75
2022/06/18 02:02:52;;;;;;;5.93;4.10;;;;;;;16.31;100.00;100809.94;4982282;28;20038;-76
2022/06/18 02:05:19;;;;;;;4.30;3.22;;;;;;;16.30;100.00;100813.69;4992027;28;20026;-75
2022/06/18 02:07:46;;;;;;;8.68;3.67;;;;;;;16.28;100.00;100799.56;4975512;28;20396;-76
2022/06/18 02:10:19;;;;;;;6.68;3.70;;;;;;;16.28;100.00;100813.03;4988026;28;20058;-75
2022/06/18 02:12:46;;;;;;;5.15;3.97;;;;;;;16.33;100.00;100796.28;4970889;28;20034;-75
2022/06/18 02:15:21;;;;;;;4.13;3.25;;;;;;;16.29;100.00;100779.66;4987017;28;20034;-76
2022/06/18 02:17:47;;;;;;;7.43;4.28;;;;;;;16.18;100.00;100778.38;4997287;28;20058;-76
2022/06/18 02:20:26;;;;;;;4.20;3.33;;;;;;;16.13;100.00;100807.78;4988107;28;20057;-75
2022/06/18 02:22:55;;;;;;;6.50;3.95;;;;;;;16.12;100.00;100768.41;4999842;28;20496;-75
2022/06/18 02:25:25;;;;;;;4.53;4.13;;;;;;;16.15;100.00;100778.75;5002188;28;20066;-75
2022/06/18 02:28:22;;;;;;;7.40;3.97;;;;;;;16.22;100.00;100794.97;4991327;28;20040;-76
2022/06/18 02:30:47;;;;;;;4.82;3.83;;;;;;;16.15;100.00;100811.09;4985394;28;20046;-75
2022/06/18 02:33:47;;;;;;;5.88;3.35;;;;;;;16.10;100.00;100839.66;4986794;28;20049;-76
2022/06/18 02:36:20;;;;;;;8.70;3.88;;;;;;;16.11;100.00;100852.94;4991367;28;20388;-76
2022/06/18 02:38:51;;;;;;;8.02;3.90;;;;;;;16.12;100.00;100821.44;4985770;28;20407;-75
2022/06/18 02:41:17;;;;;;;5.45;3.42;;;;;;;16.07;100.00;100866.97;5002765;28;20050;-75
2022/06/18 02:43:44;;;;;;;5.70;4.07;;;;;;;15.96;100.00;100898.78;4986504;28;20383;-75
2022/06/18 02:46:12;;;;;;;8.27;3.78;;;;;;;15.99;100.00;100886.78;4986394;28;20034;-75
2022/06/18 02:48:39;;;;;;;6.43;3.60;;;;;;;16.00;100.00;100838.13;4994200;28;20030;-76
2022/06/18 02:51:05;;;;;;;5.95;3.60;;;;;;;16.04;100.00;100817.88;5002545;28;20038;-75
2022/06/18 02:53:31;;;;;;;;;;;;;;;16.21;100.00;100777.16;4989768;28;20543;-76
2022/06/18 02:55:59;;;;;;;;;;;;;;;16.22;100.00;100763.50;5002939;28;19924;-76
2022/06/18 02:58:46;;;;;;;4.50;3.72;;;;;;;16.23;100.00;100748.16;4974490;28;19964;-75
2022/06/18 03:01:20;;;;;;;5.35;3.55;;;;;;;16.19;100.00;100741.50;4990804;28;20042;-76
2022/06/18 03:03:51;;;;;;;3.72;3.30;;;;;;;16.19;100.00;100741.50;5002758;28;20618;-76
2022/06/18 03:06:19;;;;;;;6.88;3.60;;;;;;;16.15;100.00;100759.09;4990906;28;20030;-76
2022/06/18 03:08:46;;;;;;;4.78;3.80;;;;;;;16.06;100.00;100801.53;5001934;28;20022;-76
2022/06/18 03:13:59;;;;;;;9.93;4.13;;;;;;;15.87;100.00;100901.81;4986836;28;20136;-75
2022/06/18 03:16:26;;;;;;;4.68;3.38;;;;;;;15.74;100.00;100929.44;4969692;28;20373;-75
2022/06/18 03:18:54;;;;;;;5.63;3.58;;;;;;;15.74;100.00;100924.06;4988830;28;20042;-76
2022/06/18 03:21:43;;;;;;;5.18;3.42;;;;;;;15.79;100.00;100916.25;4989164;28;20529;-76
2022/06/18 03:24:09;;;;;;;7.20;4.10;;;;;;;15.85;100.00;100887.69;4986284;28;20451;-77
2022/06/18 03:26:36;;;;;;;6.60;3.70;;;;;;;15.85;100.00;100869.72;4989580;28;20543;-76
2022/06/18 03:29:06;;;;;;;6.82;3.58;;;;;;;15.91;100.00;100892.31;4990929;28;20065;-76
2022/06/18 03:31:32;;;;;;;5.55;3.38;;;;;;;16.01;100.00;100847.88;4989060;28;20393;-77
2022/06/18 03:33:58;;;;;;;6.05;3.50;;;;;;;16.07;100.00;100837.34;4987370;28;20135;-76
2022/06/18 03:36:24;;;;;;;4.32;3.85;;;;;;;16.20;100.00;100808.66;4985235;28;20058;-76
2022/06/18 03:38:50;;;;;;;4.30;3.47;;;;;;;16.28;100.00;100804.13;5001828;28;20391;-76
2022/06/18 03:41:18;;;;;;;3.70;3.20;;;;;;;16.33;100.00;100780.94;4985925;28;20603;-77
2022/06/18 03:43:44;;;;;;;5.70;3.17;;;;;;;16.38;100.00;100796.50;5001858;28;20034;-76
2022/06/18 03:46:13;;;;;;;5.18;3.80;;;;;;;16.37;100.00;100801.06;4985814;28;20176;-76
2022/06/18 03:48:44;;;;;;;5.60;2.80;;;;;;;16.56;100.00;100769.03;5001561;28;20038;-76
2022/06/18 03:51:12;;;;;;;4.78;3.25;;;;;;;16.68;100.00;100749.38;4985270;28;20092;-75
2022/06/18 03:53:38;;;;;;;;;;;;;;;16.73;100.00;100761.41;4989554;28;20480;-76
2022/06/18 03:56:04;;;;;;;6.28;3.28;;;;;;;16.73;100.00;100767.63;4990494;28;19939;-76
2022/06/18 03:58:36;;;;;;;7.75;3.50;;;;;;;16.77;100.00;100768.91;4985794;28;20188;-76
2022/06/18 04:01:02;;;;;;;8.48;3.00;;;;;;;16.77;100.00;100747.34;5001845;28;20050;-76
2022/06/18 04:03:29;;;;;;;5.25;3.50;;;;;;;16.84;100.00;100734.72;4991174;28;20506;-77
2022/06/18 04:05:55;;;;;;;6.63;3.13;;;;;;;16.91;100.00;100742.00;4986381;28;20061;-76
2022/06/18 04:08:20;;;;;;;5.67;3.57;;;;;;;17.00;100.00;100751.56;4997255;28;20030;-76
2022/06/18 04:11:13;;;;;;;5.70;3.83;;;;;;;17.02;100.00;100754.88;4997421;28;20049;-76
2022/06/18 04:13:39;;;;;;;4.95;3.08;;;;;;;17.09;100.00;100753.00;5002314;28;20116;-77
2022/06/18 04:16:24;;;;;;;3.90;3.00;;;;;;;17.12;100.00;100768.81;4987269;28;20037;-76
2022/06/18 04:18:51;;;;;;;5.60;3.30;;;;;;;17.23;100.00;100770.03;4990500;28;20030;-76
2022/06/18 04:21:16;;;;;;;6.05;3.83;;;;;;;17.36;100.00;100759.28;4985566;28;20077;-75
2022/06/18 04:23:43;;;;;;;6.23;3.33;;;;;;;17.39;100.00;100760.72;5001933;28;20034;-76
2022/06/18 04:26:10;;;;;;;7.60;3.78;;;;;;;17.51;100.00;100772.56;4985520;28;20036;-77
2022/06/18 04:28:39;;;;;;;5.65;3.50;;;;;;;17.54;100.00;100745.16;4989788;28;20049;-77
2022/06/18 04:31:08;;;;;;;7.20;3.28;;;;;;;17.64;100.00;100756.38;4991091;28;20064;-77
2022/06/18 04:33:36;;;;;;;4.15;3.30;;;;;;;17.58;100.00;100757.19;4989305;28;20467;-76
2022/06/18 04:36:36;;;;;;;6.35;3.38;;;;;;;17.60;100.00;100771.31;4987870;28;20033;-75
2022/06/18 04:39:12;;;;;;;4.90;3.35;;;;;;;17.71;100.00;100788.75;4999183;28;20047;-77
2022/06/18 04:42:09;;;;;;;5.35;3.28;;;;;;;17.86;100.00;100792.13;4984384;28;20061;-76
2022/06/18 04:44:35;;;;;;;;;;;;;;;17.85;100.00;100778.81;5001850;28;20449;-77
2022/06/18 04:47:13;;;;;;;4.63;3.45;;;;;;;17.94;100.00;100758.66;4991295;28;20000;-76
2022/06/18 04:49:39;;;;;;;;;;;;;;;18.13;100.00;100783.97;5001098;28;20113;-77
2022/06/18 04:52:07;;;;;;;4.43;3.65;;;;;;;18.10;100.00;100738.47;4990010;28;20375;-76
2022/06/18 04:54:42;;;;;;;6.53;3.85;;;;;;;18.26;100.00;100769.56;4987837;28;20046;-77
2022/06/18 04:57:07;;;;;;;4.03;3.13;;;;;;;18.33;100.00;100775.78;4984551;28;20132;-76
2022/06/18 04:59:35;;;;;;;5.05;3.45;;;;;;;18.46;100.00;100769.53;5000628;28;21027;-76
2022/06/18 05:02:05;;;;;;;6.05;3.55;;;;;;;18.63;100.00;100805.84;4984191;28;20046;-76
2022/06/18 05:04:48;;;;;;;6.20;3.85;;;;;;;18.73;100.00;100778.31;4984582;28;20400;-76
2022/06/18 05:07:43;;;;;;;8.13;3.03;;;;;;;18.83;100.00;100786.03;4994412;28;20096;-76
2022/06/18 05:10:23;;;;;;;5.20;3.40;;;;;;;18.83;100.00;100756.28;4979025;28;20037;-76
2022/06/18 05:12:53;;;;;;;3.80;3.10;;;;;;;18.96;100.00;100789.50;4989796;28;20034;-76
2022/06/18 05:15:53;;;;;;;7.22;3.17;;;;;;;19.05;100.00;100784.63;4986172;28;20050;-76
2022/06/18 05:18:21;;;;;;;5.03;3.55;;;;;;;19.06;100.00;100783.63;4990685;28;20038;-77
2022/06/18 05:20:52;;;;;;;5.43;3.30;;;;;;;19.24;100.00;100777.44;4996510;28;20023;-76
2022/06/18 05:23:20;;;;;;;4.35;3.60;;;;;;;19.50;100.00;100789.13;4986546;28;20034;-76
2022/06/18 05:25:46;;;;;;;6.25;3.15;;;;;;;19.67;100.00;100784.81;4997082;28;20034;-76
2022/06/18 05:28:13;;;;;;;10.38;3.35;;;;;;;19.76;100.00;100729.34;4984851;28;20027;-77
2022/06/18 05:30:40;;;;;;;5.32;3.95;;;;;;;19.88;100.00;100736.72;4987380;28;20080;-76
2022/06/18 05:33:06;;;;;;;4.70;3.80;;;;;;;19.82;100.00;100738.47;5000291;28;20092;-75
2022/06/18 05:35:38;;;;;;;3.83;3.45;;;;;;;20.17;100.00;100797.50;4986614;28;20395;-77
2022/06/18 05:38:04;;;;;;;6.70;3.03;;;;;;;20.47;100.00;100821.19;4988575;28;20035;-76
2022/06/18 05:40:30;;;;;;;6.07;3.67;;;;;;;21.24;100.00;100802.44;5004512;28;20023;-76
2022/06/18 05:42:55;;;;;;;4.10;3.50;;;;;;;21.90;100.00;100771.50;4993265;28;20158;-76
2022/06/18 05:45:22;;;;;;;5.38;3.42;;;;;;;22.39;96.10;100756.81;5004415;28;20112;-77
2022/06/18 05:47:48;;;;;;;3.88;2.75;;;;;;;22.95;86.50;100676.22;5004524;28;20037;-76
2022/06/18 05:50:15;;;;;;;;;;;;;;;23.63;81.60;100655.22;4997012;28;20038;-76
2022/06/18 05:52:42;;;;;;;6.95;4.13;;;;;;;24.30;71.65;100546.97;5004652;28;20338;-77
2022/06/18 05:55:20;;;;;;;4.55;3.22;;;;;;;23.95;75.76;100579.06;5004642;28;20026;-76
2022/06/18 05:57:56;;;;;;;3.63;3.15;;;;;;;23.76;72.17;100496.81;4986750;28;20061;-76
2022/06/18 06:00:28;;;;;;;5.15;3.35;;;;;;;24.26;70.66;100556.75;4970856;28;20034;-76
2022/06/18 06:02:56;;;;;;;5.60;3.45;;;;;;;24.14;72.83;100600.53;4987303;28;20041;-76
2022/06/18 06:05:22;;;;;;;6.90;3.97;;;;;;;23.96;72.27;100539.81;4999228;28;20391;-76
2022/06/18 06:07:49;;;;;;;5.72;3.00;;;;;;;24.90;68.81;100603.19;4992363;28;20030;-77
2022/06/18 06:13:11;;;;;;;7.68;3.95;;;;;;;25.02;64.96;100486.38;4992428;28;20041;-79
2022/06/18 06:15:39;;;;;;;5.95;3.25;;;;;;;24.98;63.88;100451.66;4995335;28;20022;-76
2022/06/18 06:18:06;;;;;;;10.90;4.75;;;;;;;24.22;68.78;100469.16;4991399;28;20172;-76
2022/06/18 06:20:35;;;;;;;8.38;4.68;;;;;;;24.02;69.74;100462.44;5003457;28;20518;-76
2022/06/18 06:23:01;;;;;;;6.75;3.20;;;;;;;24.38;69.19;100530.94;4987111;28;20582;-76
2022/06/18 06:25:26;;;;;;;7.93;4.83;;;;;;;24.61;69.78;100578.13;4998034;28;20045;-75
2022/06/18 06:27:51;;;;;;;9.10;3.80;;;;;;;25.14;67.50;100600.88;5002754;28;20274;-76
2022/06/18 06:30:17;;;;;;;7.40;4.30;;;;;;;24.97;66.67;100521.03;4991419;28;20434;-75
2022/06/18 06:32:44;;;;;;;6.00;4.07;;;;;;;26.21;63.53;100676.41;4988297;28;20030;-76
2022/06/18 06:35:11;;;;;;;8.38;4.68;;;;;;;26.18;62.07;100579.28;4988005;28;20030;-76
2022/06/18 06:37:36;;;;;;;4.43;3.72;;;;;;;26.39;61.93;100591.06;4987809;28;20034;-76
2022/06/18 06:40:03;;;;;;;6.00;4.07;;;;;;;26.56;62.69;100669.41;4985937;28;20018;-76
2022/06/18 06:42:28;;;;;;;4.18;3.70;;;;;;;26.89;59.48;100599.59;4987757;28;20049;-77
2022/06/18 06:44:54;;;;;;;14.43;4.97;;;;;;;26.47;59.12;100500.19;4987924;28;20026;-76
2022/06/18 06:47:20;;;;;;;4.30;3.90;;;;;;;27.25;58.17;100572.97;4990996;28;20690;-77
2022/06/18 06:49:45;;;;;;;5.25;4.00;;;;;;;26.05;61.40;100465.72;4995222;28;20137;-77
2022/06/18 06:52:11;;;;;;;5.40;4.95;;;;;;;26.03;64.40;100582.78;4988290;28;20038;-77
2022/06/18 06:54:37;;;;;;;;;;;;;;;26.68;63.12;100634.38;5003841;28;20061;-77
2022/06/18 06:59:46;;;;;;;12.57;5.15;;;;;;;26.13;60.53;100427.97;4988945;28;20034;-77
2022/06/18 07:02:15;;;;;;;19.02;6.22;;;;;;;25.90;64.83;100558.69;5003218;28;20491;-76
2022/06/18 07:04:40;;;;;;;5.93;4.70;;;;;;;26.00;64.86;100586.06;4988804;28;20796;-78
2022/06/18 07:07:05;;;;;;;12.15;5.85;;;;;;;26.31;61.40;100515.78;4988780;28;20041;-75
2022/06/18 07:09:31;;;;;;;10.27;4.80;;;;;;;26.42;64.12;100609.69;4988876;28;20030;-76
2022/06/18 07:11:56;;;;;;;7.17;5.30;;;;;;;24.79;68.76;100432.19;4986914;28;20690;-76
2022/06/18 07:14:22;;;;;;;9.73;5.03;;;;;;;25.88;70.88;100711.28;4994810;28;20632;-77
2022/06/18 07:16:50;;;;;;;11.00;6.00;;;;;;;26.25;64.47;100579.03;4988469;28;20384;-77
2022/06/18 07:19:16;;;;;;;9.30;5.00;;;;;;;25.83;68.73;100604.59;4988237;28;20056;-77
2022/06/18 07:21:42;;;;;;;10.02;5.10;;;;;;;26.63;66.50;100697.34;4989076;28;20041;-76
2022/06/18 07:24:07;;;;;;;12.13;4.68;;;;;;;26.55;66.80;100682.28;4996285;28;20511;-77
2022/06/18 07:26:32;;;;;;;12.80;6.20;;;;;;;26.26;65.96;100591.59;4989074;28;20030;-77
2022/06/18 07:28:58;;;;;;;9.30;5.68;;;;;;;26.51;69.91;100749.56;4989140;28;20112;-76
2022/06/18 07:31:29;;;;;;;6.38;4.93;;;;;;;26.60;67.78;100700.59;4988981;28;20034;-77
2022/06/18 07:33:56;;;;;;;5.55;4.55;;;;;;;26.57;64.38;100602.59;4987753;28;20065;-77
2022/06/18 07:36:22;;;;;;;8.98;5.18;;;;;;;26.21;68.23;100632.63;5001866;28;20027;-77
2022/06/18 07:38:47;;;;;;;7.72;4.68;;;;;;;26.37;68.59;100686.31;4993859;28;20385;-77
2022/06/18 07:41:16;;;;;;;9.63;4.97;;;;;;;26.69;65.17;100649.69;5002549;28;20387;-77
2022/06/18 07:43:47;;;;;;;7.97;5.47;;;;;;;26.22;67.77;100639.72;4987875;28;20030;-76
2022/06/18 07:46:13;;;;;;;9.73;5.65;;;;;;;26.67;64.15;100610.84;4987404;28;20715;-76
2022/06/18 07:48:39;;;;;;;8.40;4.57;;;;;;;26.26;70.23;100704.59;4986212;28;20023;-77
2022/06/18 07:51:05;;;;;;;8.55;5.95;;;;;;;26.20;68.78;100653.69;4994178;28;20042;-77
2022/06/18 07:53:31;;;;;;;8.93;5.20;;;;;;;25.97;73.70;100726.09;4987892;28;20126;-75
2022/06/18 07:55:57;;;;;;;;;;;;;;;26.15;71.48;100694.69;4988408;28;20057;-78
2022/06/18 07:58:23;;;;;;;7.35;5.10;;;;;;;26.58;70.20;100744.72;4985821;28;19932;-76
2022/06/18 08:00:48;;;;;;;;;;;;;;;26.11;70.56;100645.19;4988108;28;20034;-77
2022/06/18 08:03:15;;;;;;;8.93;5.63;;;;;;;26.26;72.22;100722.94;4994116;28;19976;-77
2022/06/18 08:05:42;;;;;;;8.50;5.47;;;;;;;26.31;73.28;100755.78;4994162;28;20118;-76
2022/06/18 08:08:07;;;;;;;9.40;5.75;;;;;;;26.65;67.97;100682.28;4987128;28;20022;-77
2022/06/18 08:10:35;;;;;;;10.38;6.53;;;;;;;26.81;66.59;100657.66;4994663;28;20038;-77
2022/06/18 08:13:00;;;;;;;9.95;6.68;;;;;;;27.34;65.61;100727.53;4987653;28;20041;-76
2022/06/18 08:15:25;;;;;;;8.98;5.38;;;;;;;27.48;64.62;100722.31;4995388;28;20065;-76
2022/06/18 08:17:51;;;;;;;13.38;7.15;;;;;;;26.63;65.74;100574.97;4986181;28;20487;-76
2022/06/18 08:20:16;;;;;;;11.40;5.60;;;;;;;27.38;67.40;100776.34;4986363;28;20048;-76
2022/06/18 08:22:45;;;;;;;10.38;6.38;;;;;;;27.05;66.12;100685.34;4993455;28;20120;-75
2022/06/18 08:25:12;;;;;;;10.38;6.10;;;;;;;27.48;64.07;100716.03;4986750;28;20030;-76
2022/06/18 08:27:39;;;;;;;7.55;5.90;;;;;;;27.33;63.80;100654.66;4987948;28;20022;-76
2022/06/18 08:30:05;;;;;;;8.82;6.85;;;;;;;26.61;64.02;100522.41;4986213;28;20064;-76
2022/06/18 08:32:30;;;;;;;;;;;;;;;26.27;69.66;100634.25;4986958;28;20018;-76
2022/06/18 08:34:56;;;;;;;10.20;6.00;;;;;;;26.69;73.74;100808.50;4986579;28;20397;-76
2022/06/18 08:37:22;;;;;;;9.38;6.55;;;;;;;26.86;66.71;100628.38;4985928;28;20060;-75
2022/06/18 08:39:48;;;;;;;6.97;6.15;;;;;;;26.85;69.49;100716.28;4985428;28;20038;-76
2022/06/18 08:42:57;;;;;;;11.23;6.57;;;;;;;26.38;65.83;100539.34;4989754;28;20033;-76
2022/06/18 08:45:29;;;;;;;12.10;6.28;;;;;;;26.79;64.58;100594.94;4994923;28;20034;-76
2022/06/18 08:48:15;;;;;;;7.10;5.47;;;;;;;26.68;64.52;100593.31;4985037;28;20080;-76
2022/06/18 08:50:51;;;;;;;14.15;6.00;;;;;;;26.94;62.80;100596.84;4987914;28;20254;-75
2022/06/18 08:53:35;;;;;;;9.68;6.28;;;;;;;26.77;63.90;100605.34;4985513;28;20127;-77
2022/06/18 08:56:07;;;;;;;8.23;5.97;;;;;;;26.01;65.85;100502.09;4989519;28;20532;-75
2022/06/18 08:59:08;;;;;;;8.32;5.47;;;;;;;26.65;69.06;100737.06;4990863;28;20120;-76
2022/06/18 09:01:39;;;;;;;8.13;5.50;;;;;;;26.73;61.52;100502.94;4980417;28;20510;-76
2022/06/18 09:04:39;;;;;;;9.75;4.80;;;;;;;27.27;63.07;100655.75;4989162;28;20058;-76
2022/06/18 09:07:44;;;;;;;8.40;4.85;;;;;;;27.08;64.32;100674.63;4985515;28;20042;-76
2022/06/18 09:10:18;;;;;;;7.55;4.72;;;;;;;27.60;60.08;100631.53;4988132;28;20046;-76
2022/06/18 09:12:59;;;;;;;8.73;4.97;;;;;;;27.07;62.50;100595.47;4993406;28;20057;-77
2022/06/18 09:15:29;;;;;;;12.55;4.30;;;;;;;27.31;61.39;100607.50;5004374;28;20049;-77
2022/06/18 09:18:04;;;;;;;8.52;4.82;;;;;;;27.69;64.77;100791.69;4995478;28;20042;-77
2022/06/18 09:20:35;;;;;;;9.73;5.07;;;;;;;27.29;64.00;100677.41;4989289;28;20452;-76
2022/06/18 09:23:28;;;;;;;7.03;3.88;;;;;;;28.28;62.08;100823.13;4991701;28;20035;-78
2022/06/18 09:25:56;;;;;;;10.77;4.57;;;;;;;28.17;60.21;100729.06;4984786;28;20046;-77
2022/06/18 09:28:34;;;;;;;5.32;4.28;;;;;;;27.49;60.56;100577.88;4990065;28;20097;-77
2022/06/18 09:31:37;;;;;;;10.02;4.93;;;;;;;27.76;63.10;100734.63;4997673;28;20038;-76
2022/06/18 09:34:17;;;;;;;7.45;4.78;;;;;;;28.44;59.35;100727.00;4991998;28;20034;-77
2022/06/18 09:36:46;;;;;;;7.50;4.75;;;;;;;28.50;63.71;100876.94;5005423;28;20062;-76
2022/06/18 09:39:20;;;;;;;8.13;4.18;;;;;;;28.94;60.11;100808.34;4989912;28;20129;-76
2022/06/18 09:41:56;;;;;;;7.70;4.85;;;;;;;28.62;58.65;100661.28;4993241;28;20046;-76
2022/06/18 09:44:30;;;;;;;8.27;4.00;;;;;;;27.85;59.02;100534.66;4987760;28;20065;-77
2022/06/18 09:47:01;;;;;;;7.63;3.80;;;;;;;27.85;61.57;100632.59;4992196;28;20061;-75
2022/06/18 09:49:31;;;;;;;6.47;3.35;;;;;;;28.19;59.36;100658.22;4990292;28;20038;-77
2022/06/18 09:52:10;;;;;;;8.65;3.83;;;;;;;28.83;57.99;100727.88;4988242;28;20125;-76
2022/06/18 09:54:42;;;;;;;8.10;3.65;;;;;;;29.25;55.28;100673.47;5006262;28;20149;-76
2022/06/18 09:57:12;;;;;;;6.38;3.97;;;;;;;28.36;57.84;100583.75;4995910;28;20034;-77
2022/06/18 09:59:42;;;;;;;9.45;3.83;;;;;;;29.00;58.53;100754.97;4989505;28;20590;-77
2022/06/18 10:02:22;;;;;;;4.43;3.28;;;;;;;29.13;55.73;100642.78;4989362;28;20034;-77
2022/06/18 10:07:39;;;;;;;8.32;3.08;;;;;;;28.20;56.19;100480.66;4989061;28;20479;-77
2022/06/18 10:10:07;;;;;;;7.28;3.70;;;;;;;28.11;59.25;100595.69;4987091;28;20026;-78
2022/06/18 10:12:35;;;;;;;6.55;2.65;;;;;;;28.56;58.45;100648.69;4991392;28;20034;-77
2022/06/18 10:15:04;;;;;;;6.95;3.45;;;;;;;28.46;56.24;100557.31;4987748;28;20235;-76
2022/06/18 10:17:51;;;;;;;4.72;2.60;;;;;;;28.39;57.29;100577.66;4987895;28;20087;-77
2022/06/18 10:20:36;;;;;;;6.88;3.28;;;;;;;28.36;57.54;100566.44;5002463;28;20042;-77
2022/06/18 10:23:14;;;;;;;6.90;3.10;;;;;;;28.25;58.01;100542.91;4988610;28;20042;-76
2022/06/18 10:25:43;;;;;;;5.50;2.83;;;;;;;28.05;57.16;100461.56;4991739;28;20441;-77
2022/06/18 10:28:26;;;;;;;5.68;3.03;;;;;;;26.39;62.85;100339.28;4986914;28;20030;-76
2022/06/18 10:31:05;;;;;;;4.43;2.78;;;;;;;26.06;70.61;100543.97;4988277;28;20038;-76
2022/06/18 10:33:48;;;;;;;9.40;3.03;;;;;;;27.12;68.08;100686.69;4987452;28;20150;-76
2022/06/18 10:36:25;;;;;;;7.32;3.47;;;;;;;26.89;71.29;100720.94;4995314;28;20117;-77
2022/06/18 10:38:55;;;;;;;6.80;3.50;;;;;;;26.42;70.21;100582.31;4988492;28;20585;-77
2022/06/18 10:41:30;;;;;;;5.55;2.90;;;;;;;25.57;77.86;100612.66;4988514;28;20034;-76
2022/06/18 10:44:34;;;;;;;5.97;2.40;;;;;;;25.60;81.12;100715.19;4988889;28;20045;-75
2022/06/18 10:47:11;;;;;;;9.35;2.58;;;;;;;26.87;71.63;100750.50;4984493;28;20069;-76
2022/06/18 10:49:36;;;;;;;6.78;2.72;;;;;;;27.83;64.61;100722.53;4986804;28;20062;-76
2022/06/18 10:52:02;;;;;;;5.80;2.55;;;;;;;26.87;69.12;100682.03;4986243;28;20117;-77
2022/06/18 10:54:36;;;;;;;6.47;2.38;;;;;;;27.00;70.62;100727.25;4986663;28;20113;-77
2022/06/18 10:57:04;;;;;;;7.25;2.85;;;;;;;26.80;69.20;100651.34;4988569;28;20118;-77
2022/06/18 10:59:34;;;;;;;6.50;2.38;;;;;;;26.57;70.86;100649.97;4980379;28;20034;-77
2022/06/18 11:02:36;;;;;;;3.03;1.60;;;;;;;27.61;65.20;100726.44;4992005;28;20053;-77
2022/06/18 11:05:18;;;;;;;3.90;1.80;;;;;;;27.55;67.13;100727.53;4996890;28;20057;-76
2022/06/18 11:07:49;;;;;;;8.48;1.70;;;;;;;26.47;70.07;100603.38;4987033;28;20476;-76
2022/06/18 11:10:32;;;;;;;2.92;1.40;;;;;;;26.37;77.62;100757.47;4986870;28;20049;-76
2022/06/18 11:13:00;;;;;;;4.78;1.25;;;;;;;26.68;68.67;100626.16;4986267;28;20507;-77
2022/06/18 11:15:38;;;;;;;3.60;1.67;;;;;;;27.28;68.73;100741.56;4987915;28;20346;-76
2022/06/18 11:18:19;;;;;;;4.43;1.42;;;;;;;27.19;68.78;100723.97;4987306;28;20057;-76
2022/06/18 11:20:59;;;;;;;1.40;1.30;;;;;;;26.86;66.28;100562.63;5001799;28;20038;-77
2022/06/18 11:23:25;;;;;;;3.28;0.98;;;;;;;26.94;64.38;100559.31;4986312;28;20097;-77
2022/06/18 11:25:54;;;;;;;3.75;0.98;;;;;;;27.26;65.11;100654.13;4987818;28;20034;-76
2022/06/18 11:28:32;;;;;;;0.50;0.50;;;;;;;27.64;61.52;100632.63;4991182;28;20039;-77
2022/06/18 11:30:59;;;;;;;2.10;0.70;;;;;;;28.31;57.66;100635.94;4987461;28;20181;-77
2022/06/18 11:33:37;;;;;;;2.65;0.90;;;;;;;27.70;59.09;100557.50;4986345;28;20121;-78
2022/06/18 11:36:33;;;;;;;0.77;0.77;;;;;;;27.47;59.78;100530.72;4986051;28;20034;-76
2022/06/18 11:39:00;;;;;;;2.90;0.98;;;;;;;27.48;58.59;100515.91;4977663;28;20503;-77
2022/06/18 11:41:38;;;;;;;;;;;;;;;27.47;56.59;100438.34;5000978;28;20049;-77
2022/06/18 11:44:56;;;;;;;1.42;0.63;;;;;;;27.16;59.29;100522.59;4984949;28;20391;-76
2022/06/18 11:47:35;;;;;;;1.05;0.70;;;;;;;28.20;55.48;100595.91;4963929;28;20041;-77
2022/06/18 11:50:15;;;;;;;1.40;0.70;;;;;;;28.24;53.71;100511.91;4948440;28;20053;-75
2022/06/18 11:53:11;;;;;;;1.30;0.73;;;;;;;27.88;55.73;100503.09;4980254;28;20053;-76
2022/06/18 11:55:39;;;;;;;;;;;;;;;27.75;55.27;100486.16;4962574;28;20073;-78
2022/06/18 11:58:17;;;;;;;1.52;0.80;;;;;;;27.78;54.56;100441.69;4986071;28;19910;-77
2022/06/18 12:00:58;;;;;;;3.30;1.50;;;;;;;27.53;58.01;100535.91;5002374;28;20415;-77